sensor_id;sensor_type;location;lat;lon;timestamp;P1;durP1;ratioP1;P2;durP2;ratioP2
37851;SDS011;23691;52.486;4.650;2024-01-06T00:00:59;13.38;;;5.22;;
37851;SDS011;23691;52.486;4.650;2024-01-06T00:05:55;10.25;;;3.60;;
37851;SDS011;23691;52.486;4.650;2024-01-06T00:08:26;9.45;;;3.60;;
37851;SDS011;23691;52.486;4.650;2024-01-06T00:10:51;9.63;;;3.00;;
37851;SDS011;23691;52.486;4.650;2024-01-06T00:13:17;10.95;;;3.55;;
37851;SDS011;23691;52.486;4.650;2024-01-06T00:15:42;11.77;;;2.97;;
37851;SDS011;23691;52.486;4.650;2024-01-06T00:18:07;9.07;;;2.40;;
37851;SDS011;23691;52.486;4.650;2024-01-06T00:20:35;9.60;;;2.80;;
37851;SDS011;23691;52.486;4.650;2024-01-06T00:23:01;11.18;;;3.05;;
37851;SDS011;23691;52.486;4.650;2024-01-06T00:25:29;8.25;;;2.65;;
37851;SDS011;23691;52.486;4.650;2024-01-06T00:27:57;10.15;;;3.22;;
37851;SDS011;23691;52.486;4.650;2024-01-06T00:30:22;8.48;;;2.90;;
37851;SDS011;23691;52.486;4.650;2024-01-06T00:32:54;11.02;;;3.00;;
37851;SDS011;23691;52.486;4.650;2024-01-06T00:35:20;11.68;;;2.80;;
37851;SDS011;23691;52.486;4.650;2024-01-06T00:37:45;10.98;;;3.15;;
37851;SDS011;23691;52.486;4.650;2024-01-06T00:40:10;8.40;;;3.35;;
37851;SDS011;23691;52.486;4.650;2024-01-06T00:42:36;9.85;;;3.15;;
37851;SDS011;23691;52.486;4.650;2024-01-06T00:45:01;9.25;;;2.97;;
37851;SDS011;23691;52.486;4.650;2024-01-06T00:47:28;10.43;;;3.75;;
37851;SDS011;23691;52.486;4.650;2024-01-06T00:49:55;8.82;;;2.95;;
37851;SDS011;23691;52.486;4.650;2024-01-06T00:52:21;9.40;;;3.80;;
37851;SDS011;23691;52.486;4.650;2024-01-06T00:54:50;7.60;;;3.00;;
37851;SDS011;23691;52.486;4.650;2024-01-06T00:57:16;10.20;;;3.08;;
37851;SDS011;23691;52.486;4.650;2024-01-06T00:59:49;7.40;;;2.53;;
37851;SDS011;23691;52.486;4.650;2024-01-06T01:02:17;6.45;;;1.92;;
37851;SDS011;23691;52.486;4.650;2024-01-06T01:07:10;9.82;;;2.38;;
37851;SDS011;23691;52.486;4.650;2024-01-06T01:09:37;7.22;;;2.63;;
37851;SDS011;23691;52.486;4.650;2024-01-06T01:12:04;8.48;;;2.80;;
37851;SDS011;23691;52.486;4.650;2024-01-06T01:14:30;7.95;;;2.80;;
37851;SDS011;23691;52.486;4.650;2024-01-06T01:16:55;9.02;;;2.72;;
37851;SDS011;23691;52.486;4.650;2024-01-06T01:19:24;10.98;;;3.30;;
37851;SDS011;23691;52.486;4.650;2024-01-06T01:21:52;12.70;;;3.05;;
37851;SDS011;23691;52.486;4.650;2024-01-06T01:24:21;10.90;;;3.67;;
37851;SDS011;23691;52.486;4.650;2024-01-06T01:26:47;12.43;;;4.68;;
37851;SDS011;23691;52.486;4.650;2024-01-06T01:29:13;13.52;;;4.95;;
37851;SDS011;23691;52.486;4.650;2024-01-06T01:31:39;12.35;;;4.95;;
37851;SDS011;23691;52.486;4.650;2024-01-06T01:34:04;13.65;;;5.10;;
37851;SDS011;23691;52.486;4.650;2024-01-06T01:36:32;12.88;;;5.32;;
37851;SDS011;23691;52.486;4.650;2024-01-06T01:38:59;17.55;;;6.10;;
37851;SDS011;23691;52.486;4.650;2024-01-06T01:41:25;17.10;;;6.07;;
37851;SDS011;23691;52.486;4.650;2024-01-06T01:43:50;15.73;;;5.93;;
37851;SDS011;23691;52.486;4.650;2024-01-06T01:46:23;13.90;;;4.43;;
37851;SDS011;23691;52.486;4.650;2024-01-06T01:48:54;12.02;;;4.82;;
37851;SDS011;23691;52.486;4.650;2024-01-06T01:51:20;12.35;;;4.50;;
37851;SDS011;23691;52.486;4.650;2024-01-06T01:53:46;10.80;;;4.78;;
37851;SDS011;23691;52.486;4.650;2024-01-06T01:56:11;15.48;;;5.25;;
37851;SDS011;23691;52.486;4.650;2024-01-06T01:58:43;11.73;;;4.80;;
37851;SDS011;23691;52.486;4.650;2024-01-06T02:01:08;9.95;;;4.20;;
37851;SDS011;23691;52.486;4.650;2024-01-06T02:03:37;14.27;;;4.25;;
37851;SDS011;23691;52.486;4.650;2024-01-06T02:06:03;10.75;;;3.88;;
37851;SDS011;23691;52.486;4.650;2024-01-06T02:08:36;11.80;;;3.25;;
37851;SDS011;23691;52.486;4.650;2024-01-06T02:11:02;9.68;;;3.35;;
37851;SDS011;23691;52.486;4.650;2024-01-06T02:13:35;9.82;;;3.15;;
37851;SDS011;23691;52.486;4.650;2024-01-06T02:16:02;11.52;;;3.80;;
37851;SDS011;23691;52.486;4.650;2024-01-06T02:18:28;10.82;;;3.88;;
37851;SDS011;23691;52.486;4.650;2024-01-06T02:20:53;12.27;;;4.10;;
37851;SDS011;23691;52.486;4.650;2024-01-06T02:23:26;9.52;;;4.18;;
37851;SDS011;23691;52.486;4.650;2024-01-06T02:25:51;12.77;;;4.63;;
37851;SDS011;23691;52.486;4.650;2024-01-06T02:28:18;10.77;;;4.40;;
37851;SDS011;23691;52.486;4.650;2024-01-06T02:30:44;12.63;;;4.50;;
37851;SDS011;23691;52.486;4.650;2024-01-06T02:33:10;12.93;;;4.47;;
37851;SDS011;23691;52.486;4.650;2024-01-06T02:35:35;10.73;;;3.60;;
37851;SDS011;23691;52.486;4.650;2024-01-06T02:38:01;10.93;;;3.45;;
37851;SDS011;23691;52.486;4.650;2024-01-06T02:40:26;9.93;;;3.40;;
37851;SDS011;23691;52.486;4.650;2024-01-06T02:42:52;12.60;;;3.60;;
37851;SDS011;23691;52.486;4.650;2024-01-06T02:45:17;12.52;;;3.63;;
37851;SDS011;23691;52.486;4.650;2024-01-06T02:47:45;12.38;;;3.70;;
37851;SDS011;23691;52.486;4.650;2024-01-06T02:50:11;12.85;;;3.88;;
37851;SDS011;23691;52.486;4.650;2024-01-06T02:52:36;9.95;;;4.13;;
37851;SDS011;23691;52.486;4.650;2024-01-06T02:55:04;10.68;;;4.20;;
37851;SDS011;23691;52.486;4.650;2024-01-06T02:57:30;13.75;;;4.43;;
37851;SDS011;23691;52.486;4.650;2024-01-06T02:59:56;10.63;;;4.60;;
37851;SDS011;23691;52.486;4.650;2024-01-06T03:02:21;10.98;;;4.72;;
37851;SDS011;23691;52.486;4.650;2024-01-06T03:04:47;13.88;;;4.20;;
37851;SDS011;23691;52.486;4.650;2024-01-06T03:07:15;10.57;;;4.15;;
37851;SDS011;23691;52.486;4.650;2024-01-06T03:09:49;12.93;;;4.63;;
37851;SDS011;23691;52.486;4.650;2024-01-06T03:12:14;11.38;;;4.75;;
37851;SDS011;23691;52.486;4.650;2024-01-06T03:14:43;10.25;;;4.63;;
37851;SDS011;23691;52.486;4.650;2024-01-06T03:17:09;13.63;;;4.70;;
37851;SDS011;23691;52.486;4.650;2024-01-06T03:19:41;12.93;;;4.40;;
37851;SDS011;23691;52.486;4.650;2024-01-06T03:22:07;11.98;;;4.13;;
37851;SDS011;23691;52.486;4.650;2024-01-06T03:24:32;13.10;;;4.10;;
37851;SDS011;23691;52.486;4.650;2024-01-06T03:26:57;10.25;;;4.35;;
37851;SDS011;23691;52.486;4.650;2024-01-06T03:29:32;10.52;;;4.70;;
37851;SDS011;23691;52.486;4.650;2024-01-06T03:31:57;14.40;;;5.07;;
37851;SDS011;23691;52.486;4.650;2024-01-06T03:34:23;13.23;;;5.32;;
37851;SDS011;23691;52.486;4.650;2024-01-06T03:36:48;10.77;;;4.78;;
37851;SDS011;23691;52.486;4.650;2024-01-06T03:39:14;10.63;;;4.93;;
37851;SDS011;23691;52.486;4.650;2024-01-06T03:41:39;12.23;;;4.57;;
37851;SDS011;23691;52.486;4.650;2024-01-06T03:44:04;9.20;;;3.65;;
37851;SDS011;23691;52.486;4.650;2024-01-06T03:46:34;8.25;;;3.40;;
37851;SDS011;23691;52.486;4.650;2024-01-06T03:49:00;10.88;;;3.92;;
37851;SDS011;23691;52.486;4.650;2024-01-06T03:51:26;13.88;;;4.68;;
37851;SDS011;23691;52.486;4.650;2024-01-06T03:53:51;11.20;;;4.18;;
37851;SDS011;23691;52.486;4.650;2024-01-06T03:56:16;10.27;;;3.90;;
37851;SDS011;23691;52.486;4.650;2024-01-06T03:58:43;11.20;;;4.00;;
37851;SDS011;23691;52.486;4.650;2024-01-06T04:01:08;9.75;;;3.70;;
37851;SDS011;23691;52.486;4.650;2024-01-06T04:03:35;10.98;;;3.90;;
37851;SDS011;23691;52.486;4.650;2024-01-06T04:06:05;11.00;;;3.35;;
37851;SDS011;23691;52.486;4.650;2024-01-06T04:08:31;10.40;;;3.28;;
37851;SDS011;23691;52.486;4.650;2024-01-06T04:10:59;8.90;;;2.65;;
37851;SDS011;23691;52.486;4.650;2024-01-06T04:13:24;10.57;;;3.00;;
37851;SDS011;23691;52.486;4.650;2024-01-06T04:15:50;11.93;;;2.78;;
37851;SDS011;23691;52.486;4.650;2024-01-06T04:18:16;9.55;;;2.60;;
37851;SDS011;23691;52.486;4.650;2024-01-06T04:20:44;9.55;;;2.80;;
37851;SDS011;23691;52.486;4.650;2024-01-06T04:25:35;10.95;;;3.20;;
37851;SDS011;23691;52.486;4.650;2024-01-06T04:28:03;10.38;;;3.10;;
37851;SDS011;23691;52.486;4.650;2024-01-06T04:30:34;12.88;;;3.30;;
37851;SDS011;23691;52.486;4.650;2024-01-06T04:32:59;7.78;;;3.05;;
37851;SDS011;23691;52.486;4.650;2024-01-06T04:35:27;8.55;;;3.10;;
37851;SDS011;23691;52.486;4.650;2024-01-06T04:37:52;8.15;;;3.00;;
37851;SDS011;23691;52.486;4.650;2024-01-06T04:40:20;10.77;;;3.70;;
37851;SDS011;23691;52.486;4.650;2024-01-06T04:42:46;10.48;;;3.47;;
37851;SDS011;23691;52.486;4.650;2024-01-06T04:45:11;8.48;;;3.25;;
37851;SDS011;23691;52.486;4.650;2024-01-06T04:47:37;12.10;;;3.60;;
37851;SDS011;23691;52.486;4.650;2024-01-06T04:50:02;10.30;;;3.20;;
37851;SDS011;23691;52.486;4.650;2024-01-06T04:52:28;11.50;;;2.90;;
37851;SDS011;23691;52.486;4.650;2024-01-06T04:54:54;9.35;;;3.10;;
37851;SDS011;23691;52.486;4.650;2024-01-06T04:57:20;9.48;;;2.72;;
